Airfield :
LOGIN :

Register | Disclaimer

   EN    FR    IT 

 










Legend :    VFR   Marginal VFR   IFR   Intensive IFR   Very Intensive IFR
Visi :
Ceiling :
>= 8 km
>= 3000ft
5 to 8 km
1000 to 3000 ft
1500m to 5 km
500 to 1000 ft
800 to 1500m
200 to 500 ft
< 800m
< 200 ft
Symbols :   Thunderstorms  Fog  Heavy snow  Heavy precipitations  Wind > 20 kt
SIGMETs :     Misc.  Thunderstorms  Icing  Turbulence  Mountain Waves  Volcanic Ashes






- Airport Elevation : 1267 ft
- IATA code : CUF


LIMZ - Cuneo Levaldigi

CURRENT METAR :
  • 141420Z AUTO 03004KT 360V070 9999 NCD 26/14 Q1021

EXPIRED METARs :
  • 141350Z AUTO VRB02KT 9999 NCD 26/14 Q1021
  • 141320Z AUTO 05005KT 360V080 9999 NCD 25/15 Q1021
  • 141250Z AUTO 02004KT 350V070 9999 NCD 25/14 Q1022
  • 141220Z AUTO 01005KT 310V070 9999 NCD 25/15 Q1023
  • 141150Z AUTO 01004KT 330V060 9999 NCD 24/14 Q1023
  • 141120Z AUTO 06003KT 350V120 9999 NCD 24/14 Q1023
  • 141050Z AUTO 06004KT 010V110 9999 NCD 23/14 Q1024
  • 141020Z AUTO 04003KT 330V110 9999 NCD 23/15 Q1024
  • 140950Z AUTO 04003KT 280V090 9999 NCD 22/16 Q1024

TAF TAF LIMZ
Valid from the 14 at 12:00 until the 15 at 12:00 UTC


141100Z 1412/1512 VRB04KT 9999 FEW050



MET'MAP, your aeronautical weather chart ! - Copyright ORBIFLY December 2007 - Disclaimer

ORBIFLY MET'MAP TEAM :

Programming & Development : Alexandra Zaïnal
Original concept : Baudouin d'Aumeries
Technical & hardware support : Manuel Goepfert
Assistance : Marc-Olivier Méhu




SOURCES & CREDITS :

   NOAA